Garden Plain, Kansas
Current Conditions -  °F | °C
As of 4:53 AM on Tuesday 21 Oct 2014 (Local Time) from KICT Reporting Station
Few Clouds Few Clouds  
Wind Chill: 54°   Ceiling: Unl
Heat Index: 54°   Visibility: 10mi
Dew Point: 48°   Wind: 5mph
Humidity: 80%   Direction: 40°NE
Pressure: 30.07"   Gusts: NA
Location:  37.66°N, 97.68°W
Report Text: KICT 210953Z 04004KT 10SM FEW050 12/09 A3007 RMK AO2 SLP175 T01220089
Loading
Personal Weather Stations






























Interactive Weather Map New forecast layout! Learn more

10-Day Weather Forecast

Advertisements
Track Severe Weather on mobile